createdAt,value
2023-03-28T00:00:45.509Z,69.35
2023-03-28T00:03:48.297Z,70.27
2023-03-28T00:06:52.268Z,70.58
2023-03-28T00:09:55.051Z,71.25
2023-03-28T00:12:57.646Z,71.50
2023-03-28T00:16:06.062Z,72.04
2023-03-28T00:19:11.961Z,72.78
2023-03-28T00:22:14.852Z,73.01
2023-03-28T00:25:19.812Z,73.62
2023-03-28T00:28:22.499Z,74.21
2023-03-28T00:31:28.504Z,74.03
2023-03-28T00:34:31.578Z,74.85
2023-03-28T00:37:34.441Z,75.61
2023-03-28T00:40:38.917Z,76.38
2023-03-28T00:43:52.604Z,76.54
2023-03-28T00:46:56.358Z,76.72
2023-03-28T00:50:05.805Z,76.85
2023-03-28T00:53:11.570Z,76.72
2023-03-28T00:56:17.866Z,77.53
2023-03-28T00:59:23.668Z,77.63
2023-03-28T01:02:26.664Z,77.32
2023-03-28T01:05:32.465Z,77.52
2023-03-28T01:08:38.857Z,78.15
2023-03-28T01:11:45.018Z,78.30
2023-03-28T01:14:49.676Z,78.80
2023-03-28T01:17:53.963Z,79.30
2023-03-28T01:21:34.117Z,79.57
2023-03-28T01:24:58.791Z,79.78
2023-03-28T01:28:25.224Z,80.14
2023-03-28T01:31:44.065Z,78.91
2023-03-28T01:35:37.970Z,79.45
2023-03-28T01:38:54.592Z,79.16
2023-03-28T01:42:19.270Z,79.23
2023-03-28T01:45:50.835Z,79.95
2023-03-28T01:49:12.381Z,80.52
2023-03-28T01:52:22.006Z,79.98
2023-03-28T01:55:42.066Z,79.63
2023-03-28T01:58:58.752Z,80.28
2023-03-28T02:02:34.983Z,79.71
2023-03-28T02:05:46.579Z,79.13
2023-03-28T02:08:53.291Z,79.39
2023-03-28T02:12:17.427Z,78.65
2023-03-28T02:15:33.287Z,79.17
2023-03-28T02:19:02.147Z,78.33
2023-03-28T02:22:59.756Z,77.88
2023-03-28T02:26:24.253Z,77.72
2023-03-28T02:30:08.060Z,77.54
2023-03-28T02:33:38.115Z,76.93
2023-03-28T02:36:50.157Z,76.57
2023-03-28T02:39:58.322Z,76.52
2023-03-28T02:43:37.250Z,76.26
2023-03-28T02:47:03.488Z,75.49
2023-03-28T02:50:26.092Z,75.92
2023-03-28T02:54:03.064Z,75.83
2023-03-28T02:57:13.161Z,75.20
2023-03-28T03:00:21.906Z,75.29
2023-03-28T03:03:26.191Z,75.38
2023-03-28T03:06:29.204Z,75.23
2023-03-28T03:09:32.727Z,75.79
2023-03-28T03:12:36.712Z,76.23
2023-03-28T03:15:41.626Z,75.94
2023-03-28T03:19:13.754Z,76.16
2023-03-28T03:22:20.572Z,75.93
2023-03-28T03:25:27.273Z,76.13
2023-03-28T03:28:42.367Z,76.13
2023-03-28T03:31:45.411Z,75.54
2023-03-28T03:35:08.308Z,75.66
2023-03-28T03:38:11.034Z,75.25
2023-03-28T03:41:14.394Z,75.81
2023-03-28T03:44:17.181Z,75.36
2023-03-28T03:47:20.328Z,74.97
2023-03-28T03:50:25.536Z,75.13
2023-03-28T03:53:28.356Z,74.81
2023-03-28T03:56:38.848Z,74.62
2023-03-28T03:59:41.907Z,74.68
2023-03-28T04:02:49.364Z,74.36
2023-03-28T04:05:59.572Z,74.37
2023-03-28T04:09:02.483Z,74.04
2023-03-28T04:12:25.029Z,74.29
2023-03-28T04:15:31.027Z,74.01
2023-03-28T04:18:40.562Z,73.68
2023-03-28T04:21:44.154Z,73.91
2023-03-28T04:24:50.086Z,74.31
2023-03-28T04:28:05.678Z,74.31
2023-03-28T04:31:16.346Z,73.93
2023-03-28T04:34:39.056Z,74.50
2023-03-28T04:37:44.829Z,74.54
2023-03-28T04:40:47.479Z,74.74
2023-03-28T04:44:12.792Z,74.45
2023-03-28T04:47:21.718Z,73.64
2023-03-28T04:50:24.494Z,74.36
2023-03-28T04:53:27.396Z,74.27
2023-03-28T04:56:48.606Z,74.41
2023-03-28T04:59:57.119Z,74.66
2023-03-28T05:03:22.941Z,74.48
2023-03-28T05:06:37.548Z,74.26
2023-03-28T05:09:40.847Z,74.16
2023-03-28T05:12:44.210Z,73.24
2023-03-28T05:15:47.842Z,74.45
2023-03-28T05:19:21.212Z,75.04
2023-03-28T05:22:33.830Z,74.19
2023-03-28T05:25:41.124Z,74.72
2023-03-28T05:28:44.348Z,75.15
2023-03-28T05:31:47.365Z,73.30
2023-03-28T05:34:58.699Z,73.87
2023-03-28T05:38:05.472Z,73.07
2023-03-28T05:41:08.434Z,72.34
2023-03-28T05:44:11.339Z,71.52
2023-03-28T05:47:40.601Z,71.49
2023-03-28T05:50:45.335Z,71.27
2023-03-28T05:53:48.260Z,71.10
2023-03-28T05:56:51.050Z,70.90
2023-03-28T05:59:54.272Z,70.33
2023-03-28T06:02:58.285Z,69.57
2023-03-28T06:06:08.924Z,69.70
2023-03-28T06:09:12.589Z,69.75
2023-03-28T06:12:25.927Z,69.85
2023-03-28T06:15:29.145Z,71.85
2023-03-28T06:18:31.997Z,73.38
2023-03-28T06:21:35.558Z,73.35
2023-03-28T06:24:41.779Z,74.37
2023-03-28T06:27:44.438Z,74.89
2023-03-28T06:30:50.941Z,74.39
2023-03-28T06:33:54.224Z,74.44
2023-03-28T06:37:02.124Z,74.54
2023-03-28T06:40:20.955Z,73.84
2023-03-28T06:43:23.903Z,73.10
2023-03-28T06:46:42.513Z,71.91
2023-03-28T06:49:51.505Z,71.98
2023-03-28T06:53:12.903Z,71.53
2023-03-28T06:56:18.490Z,71.44
2023-03-28T06:59:21.822Z,70.66
2023-03-28T07:02:30.232Z,71.04
2023-03-28T07:05:41.364Z,72.17
2023-03-28T07:08:49.541Z,73.18
2023-03-28T07:12:02.417Z,72.31
2023-03-28T07:15:06.421Z,72.63
2023-03-28T07:18:13.215Z,73.95
2023-03-28T07:21:21.703Z,73.91
2023-03-28T07:24:24.535Z,74.52
2023-03-28T07:27:38.918Z,73.16
2023-03-28T07:30:42.305Z,73.93
2023-03-28T07:33:44.941Z,75.10
2023-03-28T07:36:48.115Z,71.81
2023-03-28T07:39:58.682Z,67.58
2023-03-28T07:43:02.802Z,66.34
2023-03-28T07:46:08.440Z,65.71
2023-03-28T07:49:11.965Z,65.23
2023-03-28T07:52:15.467Z,65.24
2023-03-28T07:55:21.885Z,64.87
2023-03-28T07:58:26.917Z,64.05
2023-03-28T08:01:33.785Z,64.57
2023-03-28T08:04:42.000Z,64.43
2023-03-28T08:07:52.299Z,64.59
2023-03-28T08:10:55.144Z,64.84
2023-03-28T08:14:01.494Z,64.69
2023-03-28T08:17:06.079Z,62.77
2023-03-28T08:20:13.217Z,62.80
2023-03-28T08:23:31.480Z,61.27
2023-03-28T08:26:44.052Z,61.46
2023-03-28T08:29:48.098Z,59.89
2023-03-28T08:32:52.039Z,60.98
2023-03-28T08:35:55.061Z,61.42
2023-03-28T08:39:01.253Z,62.77
2023-03-28T08:42:19.808Z,61.14
2023-03-28T08:45:38.417Z,60.24
2023-03-28T08:48:44.924Z,60.79
2023-03-28T08:51:51.867Z,59.67
2023-03-28T08:55:06.671Z,56.84
2023-03-28T08:58:23.806Z,57.37
2023-03-28T09:01:29.691Z,51.72
2023-03-28T09:04:35.567Z,52.06
2023-03-28T09:07:55.621Z,50.41
2023-03-28T09:11:24.812Z,50.38
2023-03-28T09:15:01.731Z,51.75
2023-03-28T09:18:34.618Z,51.04
2023-03-28T09:22:14.837Z,50.68
2023-03-28T09:25:40.216Z,49.94
2023-03-28T09:28:46.486Z,49.51
2023-03-28T09:31:51.996Z,48.67
2023-03-28T09:34:56.724Z,49.29
2023-03-28T09:38:04.988Z,50.66
2023-03-28T09:41:15.222Z,49.75
2023-03-28T09:45:16.755Z,49.09
2023-03-28T09:48:28.263Z,48.30
2023-03-28T09:51:31.803Z,50.50
2023-03-28T09:54:37.814Z,48.88
2023-03-28T09:58:11.571Z,48.94
2023-03-28T10:01:34.487Z,50.77
2023-03-28T10:05:05.521Z,48.69
2023-03-28T10:08:23.007Z,48.01
2023-03-28T10:11:58.072Z,47.75
2023-03-28T10:15:05.075Z,47.43
2023-03-28T10:18:45.691Z,47.69
2023-03-28T10:22:17.463Z,46.33
2023-03-28T10:25:37.835Z,46.79
2023-03-28T10:28:43.635Z,45.83
2023-03-28T10:31:50.021Z,46.09
2023-03-28T10:35:26.880Z,45.17
2023-03-28T10:38:49.977Z,44.38
2023-03-28T10:42:00.471Z,44.48
2023-03-28T10:45:20.475Z,46.53
2023-03-28T10:48:28.116Z,42.46
2023-03-28T10:51:38.314Z,44.52
2023-03-28T10:55:10.225Z,44.61
2023-03-28T10:58:35.681Z,45.00
2023-03-28T11:01:49.966Z,43.36
2023-03-28T11:04:58.583Z,41.88
2023-03-28T11:08:26.733Z,42.43
2023-03-28T11:12:06.387Z,42.62
2023-03-28T11:15:31.967Z,42.23
2023-03-28T11:18:56.844Z,42.95
2023-03-28T11:22:21.735Z,41.79
2023-03-28T11:25:46.902Z,41.75
2023-03-28T11:29:59.961Z,42.36
2023-03-28T11:33:31.120Z,40.47
2023-03-28T11:36:46.244Z,40.39
2023-03-28T11:40:04.054Z,39.03
2023-03-28T11:43:33.996Z,40.95
2023-03-28T11:46:56.039Z,40.10
2023-03-28T11:50:05.363Z,38.96
2023-03-28T11:53:43.350Z,37.92
2023-03-28T11:57:23.808Z,36.37
2023-03-28T12:01:06.601Z,37.18
2023-03-28T12:04:22.061Z,37.75
2023-03-28T12:08:07.572Z,37.84
2023-03-28T12:11:18.580Z,38.12
2023-03-28T12:14:43.237Z,38.74
2023-03-28T12:18:23.416Z,39.51
2023-03-28T12:21:35.586Z,38.62
2023-03-28T12:24:57.074Z,39.55
2023-03-28T12:28:28.913Z,39.98
2023-03-28T12:31:48.851Z,43.09
2023-03-28T12:35:05.746Z,50.57
2023-03-28T12:38:47.857Z,53.24
2023-03-28T12:42:13.513Z,56.04
2023-03-28T12:45:41.637Z,57.08
2023-03-28T12:49:08.686Z,56.31
2023-03-28T12:52:44.329Z,52.07
2023-03-28T12:55:57.742Z,51.56
2023-03-28T12:59:36.473Z,51.08
2023-03-28T13:02:44.697Z,50.28
2023-03-28T13:06:09.823Z,50.34
2023-03-28T13:09:31.573Z,48.11
2023-03-28T13:12:49.088Z,46.40
2023-03-28T13:16:00.557Z,47.01
2023-03-28T13:19:11.756Z,46.42
2023-03-28T13:23:01.848Z,44.31
2023-03-28T13:26:06.530Z,44.05
2023-03-28T13:29:09.481Z,45.39
2023-03-28T13:32:23.704Z,49.12
2023-03-28T13:35:49.368Z,51.51
2023-03-28T13:39:33.371Z,54.79
2023-03-28T13:42:36.281Z,55.90
2023-03-28T13:45:39.285Z,55.27
2023-03-28T13:48:54.695Z,54.95
2023-03-28T13:52:19.673Z,54.18
2023-03-28T13:55:24.525Z,53.16
2023-03-28T13:58:27.430Z,49.14
2023-03-28T14:01:45.281Z,47.21
2023-03-28T14:04:57.590Z,47.53
2023-03-28T14:08:21.687Z,47.56
2023-03-28T14:11:34.799Z,46.73
2023-03-28T14:14:42.568Z,45.28
2023-03-28T14:17:45.290Z,46.22
2023-03-28T14:20:48.100Z,46.29
2023-03-28T14:23:59.121Z,45.85
2023-03-28T14:27:16.088Z,45.52
2023-03-28T14:30:29.923Z,45.69
2023-03-28T14:33:37.822Z,49.18
2023-03-28T14:37:02.447Z,52.42
2023-03-28T14:40:31.791Z,54.17
2023-03-28T14:43:34.824Z,53.79
2023-03-28T14:46:37.818Z,53.61
2023-03-28T14:49:41.178Z,52.99
2023-03-28T14:52:44.995Z,49.55
2023-03-28T14:55:52.161Z,49.94
2023-03-28T14:59:00.061Z,48.52
2023-03-28T15:02:04.978Z,49.60
2023-03-28T15:05:15.040Z,49.93
2023-03-28T15:08:34.829Z,49.69
2023-03-28T15:11:39.407Z,49.38
2023-03-28T15:14:44.315Z,47.40
2023-03-28T15:17:47.642Z,45.70
2023-03-28T15:20:52.563Z,48.76
2023-03-28T15:24:00.900Z,54.08
2023-03-28T15:27:06.027Z,51.70
2023-03-28T15:30:17.149Z,50.44
2023-03-28T15:33:22.624Z,51.89
2023-03-28T15:36:30.827Z,52.28
2023-03-28T15:39:35.138Z,52.18
2023-03-28T15:42:38.201Z,51.88
2023-03-28T15:45:44.970Z,51.17
2023-03-28T15:48:48.347Z,51.11
2023-03-28T15:51:58.450Z,51.09
2023-03-28T15:55:02.713Z,51.75
2023-03-28T15:58:06.394Z,51.43
2023-03-28T16:01:27.468Z,50.11
2023-03-28T16:04:30.362Z,49.20
2023-03-28T16:07:37.474Z,49.05
2023-03-28T16:10:40.377Z,48.29
2023-03-28T16:14:03.675Z,48.39
2023-03-28T16:17:33.659Z,48.53
2023-03-28T16:20:59.398Z,48.54
2023-03-28T16:24:02.395Z,48.24
2023-03-28T16:27:05.403Z,49.43
2023-03-28T16:30:18.317Z,48.93
2023-03-28T16:33:22.116Z,48.33
2023-03-28T16:36:27.772Z,48.86
2023-03-28T16:39:30.669Z,49.48
2023-03-28T16:42:33.626Z,50.25
2023-03-28T16:45:36.644Z,49.86
2023-03-28T16:48:39.828Z,50.85
2023-03-28T16:51:42.937Z,51.31
2023-03-28T16:54:48.884Z,50.61
2023-03-28T16:57:52.192Z,51.01
2023-03-28T17:01:08.857Z,50.89
2023-03-28T17:04:12.161Z,51.22
2023-03-28T17:07:15.285Z,52.16
2023-03-28T17:10:18.210Z,52.81
2023-03-28T17:13:21.683Z,52.55
2023-03-28T17:16:24.694Z,52.42
2023-03-28T17:19:29.400Z,54.05
2023-03-28T17:22:32.202Z,55.80
2023-03-28T17:25:41.712Z,56.83
2023-03-28T17:28:52.591Z,56.88
2023-03-28T17:31:55.820Z,57.85
2023-03-28T17:34:58.936Z,59.41
2023-03-28T17:38:01.754Z,60.17
2023-03-28T17:41:04.759Z,60.47
2023-03-28T17:44:09.309Z,60.19
2023-03-28T17:47:12.850Z,60.70
2023-03-28T17:50:16.105Z,60.40
2023-03-28T17:53:19.112Z,59.29
2023-03-28T17:56:22.558Z,57.19
2023-03-28T17:59:25.494Z,55.95
2023-03-28T18:02:29.025Z,55.82
2023-03-28T18:05:50.295Z,55.53
2023-03-28T18:08:55.894Z,55.44
2023-03-28T18:11:58.728Z,55.46
2023-03-28T18:15:01.559Z,55.17
2023-03-28T18:18:05.471Z,55.45
2023-03-28T18:21:09.107Z,56.41
2023-03-28T18:24:12.860Z,55.70
2023-03-28T18:27:15.920Z,56.00
2023-03-28T18:30:21.664Z,55.85
2023-03-28T18:33:24.685Z,55.51
2023-03-28T18:36:27.952Z,55.77
2023-03-28T18:39:33.315Z,56.03
2023-03-28T18:42:36.941Z,56.15
2023-03-28T18:45:40.974Z,56.86
2023-03-28T18:48:46.024Z,57.85
2023-03-28T18:51:49.337Z,58.26
2023-03-28T18:54:54.959Z,58.40
2023-03-28T18:57:58.448Z,59.44
2023-03-28T19:01:03.759Z,59.89
2023-03-28T19:04:06.993Z,60.00
2023-03-28T19:07:10.426Z,60.66
2023-03-28T19:10:14.619Z,60.96
2023-03-28T19:13:17.510Z,60.83
2023-03-28T19:16:20.406Z,62.00
2023-03-28T19:19:25.872Z,62.12
2023-03-28T19:22:28.620Z,62.38
2023-03-28T19:25:32.196Z,61.99
2023-03-28T19:28:35.623Z,62.76
2023-03-28T19:31:38.558Z,63.88
2023-03-28T19:34:41.769Z,64.24
2023-03-28T19:37:44.523Z,64.11
2023-03-28T19:40:47.681Z,65.04
2023-03-28T19:43:51.681Z,64.89
2023-03-28T19:46:54.525Z,65.68
2023-03-28T19:49:57.562Z,65.13
2023-03-28T19:53:00.563Z,65.54
2023-03-28T19:56:03.812Z,65.86
2023-03-28T19:59:06.838Z,65.27
2023-03-28T20:02:11.206Z,65.58
2023-03-28T20:05:14.063Z,65.98
2023-03-28T20:08:19.260Z,65.67
2023-03-28T20:11:22.443Z,65.91
2023-03-28T20:14:25.268Z,66.09
2023-03-28T20:17:28.170Z,66.31
2023-03-28T20:20:31.670Z,66.25
2023-03-28T20:23:34.557Z,66.66
2023-03-28T20:26:37.296Z,67.34
2023-03-28T20:29:40.034Z,67.32
2023-03-28T20:32:44.949Z,68.15
2023-03-28T20:35:58.912Z,68.13
2023-03-28T20:39:02.851Z,67.98
2023-03-28T20:42:05.889Z,67.99
2023-03-28T20:45:14.289Z,68.00
2023-03-28T20:48:17.181Z,67.69
2023-03-28T20:51:23.309Z,67.78
2023-03-28T20:54:28.121Z,66.90
2023-03-28T20:57:36.184Z,67.70
2023-03-28T21:00:40.222Z,66.95
2023-03-28T21:03:50.078Z,67.35
2023-03-28T21:06:55.538Z,67.32
2023-03-28T21:10:01.506Z,67.33
2023-03-28T21:13:04.332Z,67.10
2023-03-28T21:16:07.798Z,65.97
2023-03-28T21:19:10.622Z,66.87
2023-03-28T21:22:13.303Z,67.26
2023-03-28T21:25:18.943Z,66.59
2023-03-28T21:28:21.840Z,66.31
2023-03-28T21:31:27.057Z,65.63
2023-03-28T21:34:35.923Z,65.28
2023-03-28T21:37:38.835Z,65.50
2023-03-28T21:40:41.506Z,65.28
2023-03-28T21:43:44.338Z,65.20
2023-03-28T21:46:47.185Z,65.93
2023-03-28T21:49:49.932Z,65.38
2023-03-28T21:52:52.824Z,65.23
2023-03-28T21:55:56.531Z,64.52
2023-03-28T21:58:59.211Z,63.76
2023-03-28T22:02:02.107Z,63.61
2023-03-28T22:05:07.238Z,63.05
2023-03-28T22:08:15.794Z,64.39
2023-03-28T22:11:21.725Z,64.30
2023-03-28T22:14:24.401Z,64.32
2023-03-28T22:17:27.395Z,63.97
2023-03-28T22:20:30.185Z,62.46
2023-03-28T22:23:32.819Z,62.96
2023-03-28T22:26:36.280Z,63.06
2023-03-28T22:29:38.903Z,62.53
2023-03-28T22:32:41.954Z,63.15
2023-03-28T22:35:47.303Z,63.15
2023-03-28T22:38:49.981Z,63.54
2023-03-28T22:41:54.294Z,63.01
2023-03-28T22:44:56.955Z,63.12
2023-03-28T22:48:00.713Z,63.15
2023-03-28T22:51:03.673Z,62.48
2023-03-28T22:54:06.591Z,62.90
2023-03-28T22:57:09.555Z,63.84
2023-03-28T23:00:13.601Z,63.44
2023-03-28T23:03:17.471Z,63.60
2023-03-28T23:06:20.597Z,63.32
2023-03-28T23:09:27.722Z,63.68
2023-03-28T23:12:30.879Z,63.89
2023-03-28T23:15:33.495Z,64.14
2023-03-28T23:18:36.712Z,64.08
2023-03-28T23:21:39.444Z,64.47
2023-03-28T23:24:42.180Z,64.41
2023-03-28T23:27:45.278Z,64.21
2023-03-28T23:30:47.950Z,64.39
2023-03-28T23:33:50.855Z,64.64
2023-03-28T23:36:57.382Z,65.22
2023-03-28T23:40:00.170Z,65.52
2023-03-28T23:43:02.744Z,66.00
2023-03-28T23:46:05.845Z,66.25
2023-03-28T23:49:10.691Z,67.65
2023-03-28T23:52:13.869Z,68.65
2023-03-28T23:55:16.858Z,69.19
2023-03-28T23:58:19.940Z,69.18
